Time;durP1;ratioP1;P1;durP2;ratioP2;P2;SDS_P1;SDS_P2;PMS_P1;PMS_P2;Temp;Humidity;BMP_temperature;BMP_pressure;BME280_temperature;BME280_humidity;BME280_pressure;Samples;Min_cycle;Max_cycle;Signal;HPM_P1;HPM_P2
2024/04/03 00:02:19;;;;;;;;;2.00;1.00;;;;;13.47;100.00;97855.28;6055727;28;96787;-58
2024/04/03 00:05:20;;;;;;;;;2.20;1.60;;;;;13.39;100.00;97868.25;6055013;28;96271;-58
2024/04/03 00:08:22;;;;;;;;;4.00;3.00;;;;;13.14;100.00;97840.25;6036078;28;96541;-58
2024/04/03 00:11:24;;;;;;;;;1.75;1.00;;;;;13.27;100.00;97864.97;6055033;28;96476;-58
2024/04/03 00:14:27;;;;;;;;;3.00;3.00;;;;;13.26;100.00;97865.22;6055335;28;96447;-58
2024/04/03 00:17:30;;;;;;;;;2.00;2.00;;;;;13.27;100.00;97872.25;6067267;28;96375;-58
2024/04/03 00:20:31;;;;;;;;;2.00;2.00;;;;;13.13;100.00;97857.56;6065782;28;96481;-58
2024/04/03 00:23:33;;;;;;;;;3.00;2.00;;;;;13.07;100.00;97848.56;6054666;28;96339;-58
2024/04/03 00:26:35;;;;;;;;;1.75;1.75;;;;;13.22;100.00;97861.41;6056510;28;96411;-58
2024/04/03 00:29:37;;;;;;;;;2.80;2.00;;;;;13.14;100.00;97861.91;6073089;28;96353;-57
2024/04/03 00:32:40;;;;;;;;;2.00;2.00;;;;;13.08;100.00;97877.28;6055974;28;96401;-59
2024/04/03 00:35:43;;;;;;;;;2.00;2.00;;;;;12.96;100.00;97860.41;6038455;28;99256;-59
2024/04/03 00:38:44;;;;;;;;;3.50;3.00;;;;;12.88;100.00;97863.63;6055520;28;96405;-59
2024/04/03 00:41:46;;;;;;;;;3.00;3.00;;;;;12.87;100.00;97856.56;6055079;28;96306;-59
2024/04/03 00:44:49;;;;;;;;;4.00;2.00;;;;;12.81;100.00;97861.13;6048377;28;98771;-59
2024/04/03 00:47:53;;;;;;;;;3.00;3.00;;;;;12.80;100.00;97864.13;6055600;28;97397;-57
2024/04/03 00:50:56;;;;;;;;;2.00;2.00;;;;;12.76;100.00;97873.81;6073095;28;96311;-58
2024/04/03 00:53:58;;;;;;;;;3.00;2.80;;;;;12.84;100.00;97870.63;6060252;28;98520;-60
2024/04/03 00:56:59;;;;;;;;;2.80;2.20;;;;;12.80;100.00;97880.34;6072173;28;96534;-60
2024/04/03 01:00:01;;;;;;;;;3.00;3.00;;;;;12.81;100.00;97863.03;6052517;28;96534;-62
2024/04/03 01:03:05;;;;;;;;;3.00;3.00;;;;;12.68;100.00;97877.00;6091075;23;97289;-56
2024/04/03 01:06:09;;;;;;;;;2.00;2.00;;;;;12.69;100.00;97867.81;6066173;28;98618;-56
2024/04/03 01:09:10;;;;;;;;;2.00;2.00;;;;;12.74;100.00;97876.78;6092779;28;96909;-56
2024/04/03 01:12:12;;;;;;;;;2.00;2.00;;;;;12.76;100.00;97871.91;6079836;28;98709;-56
2024/04/03 01:15:14;;;;;;;;;2.00;2.00;;;;;12.74;100.00;97876.78;6079980;28;96657;-54
2024/04/03 01:18:17;;;;;;;;;2.00;2.00;;;;;12.89;100.00;97876.91;6078698;28;98694;-54
2024/04/03 01:21:18;;;;;;;;;2.00;2.00;;;;;12.91;100.00;97869.31;6069505;28;97787;-54
2024/04/03 01:24:23;;;;;;;;;2.00;2.00;;;;;12.83;100.00;97872.53;6053495;28;96303;-54
2024/04/03 01:27:24;;;;;;;;;3.00;3.00;;;;;12.81;100.00;97873.84;6070966;28;96493;-54
2024/04/03 01:30:26;;;;;;;;;2.00;2.00;;;;;12.71;100.00;97862.94;6053201;28;98969;-54
2024/04/03 01:33:29;;;;;;;;;3.00;2.00;;;;;12.69;100.00;97865.13;6059736;28;98481;-54
2024/04/03 01:36:30;;;;;;;;;2.00;2.00;;;;;12.75;100.00;97869.50;6069123;28;96667;-54
2024/04/03 01:39:34;;;;;;;;;3.00;3.00;;;;;12.73;100.00;97868.94;6047456;28;98589;-55
2024/04/03 01:42:35;;;;;;;;;2.00;2.00;;;;;12.70;100.00;97850.53;6022547;28;99053;-54
2024/04/03 01:45:37;;;;;;;;;2.00;2.00;;;;;12.82;100.00;97873.59;6072134;28;99552;-55
2024/04/03 01:48:39;;;;;;;;;1.80;1.80;;;;;11.84;100.00;97702.09;6056167;28;98387;-54
2024/04/03 01:51:40;;;;;;;;;2.25;2.25;;;;;12.95;100.00;97870.41;6071254;28;96737;-54
2024/04/03 01:54:44;;;;;;;;;2.00;1.00;;;;;12.86;100.00;97871.16;6054355;28;96747;-54
2024/04/03 01:57:45;;;;;;;;;2.00;2.00;;;;;12.99;100.00;97870.72;6055539;28;96808;-54
2024/04/03 02:00:47;;;;;;;;;2.00;2.00;;;;;13.01;100.00;97865.84;6066420;28;96373;-54
2024/04/03 02:03:50;;;;;;;;;1.00;1.00;;;;;13.02;100.00;97868.31;6039133;28;97514;-54
2024/04/03 02:06:51;;;;;;;;;2.60;2.00;;;;;12.97;100.00;97870.97;6066626;28;96370;-54
2024/04/03 02:09:54;;;;;;;;;3.00;2.00;;;;;12.90;100.00;97870.38;6073430;28;96261;-54
2024/04/03 02:12:56;;;;;;;;;2.00;2.00;;;;;12.98;100.00;97860.97;6071637;28;96688;-55
2024/04/03 02:15:58;;;;;;;;;2.80;2.00;;;;;12.85;100.00;97858.75;6050003;28;96721;-54
2024/04/03 02:18:59;;;;;;;;;2.00;2.00;;;;;12.89;100.00;97868.78;6057902;28;96420;-54
2024/04/03 02:22:01;;;;;;;;;2.00;2.00;;;;;12.87;100.00;97859.28;6070522;28;97248;-54
2024/04/03 02:25:05;;;;;;;;;2.00;2.00;;;;;12.99;100.00;97859.91;6044525;28;96300;-55
2024/04/03 02:28:07;;;;;;;;;2.60;2.60;;;;;12.91;100.00;97853.09;6049628;28;96480;-54
2024/04/03 02:31:09;;;;;;;;;2.00;2.00;;;;;13.00;100.00;97864.22;6034429;28;98519;-54
2024/04/03 02:34:10;;;;;;;;;3.00;3.00;;;;;12.96;100.00;97863.13;6065948;28;96286;-54
2024/04/03 02:37:13;;;;;;;;;1.40;1.40;;;;;13.01;100.00;97863.16;6050815;28;98720;-54
2024/04/03 02:40:16;;;;;;;;;1.00;1.00;;;;;13.06;100.00;97856.94;6034392;28;98614;-54
2024/04/03 02:43:17;;;;;;;;;2.20;2.00;;;;;13.07;100.00;97864.00;6048952;28;96674;-54
2024/04/03 02:46:20;;;;;;;;;2.00;1.40;;;;;13.02;100.00;97853.97;6071919;28;96536;-57
2024/04/03 02:49:21;;;;;;;;;2.00;2.00;;;;;12.94;100.00;97852.59;6057964;28;96303;-54
2024/04/03 02:52:23;;;;;;;;;2.00;1.00;;;;;12.87;100.00;97859.28;6074786;28;96435;-54
2024/04/03 02:55:26;;;;;;;;;3.00;2.00;;;;;12.89;100.00;97860.66;6075446;28;96664;-54
2024/04/03 02:58:28;;;;;;;;;2.67;2.00;;;;;12.98;100.00;97852.88;6055521;28;97170;-54
2024/04/03 03:01:30;;;;;;;;;3.00;2.00;;;;;12.88;100.00;97850.09;6047342;28;98935;-55
2024/04/03 03:04:41;;;;;;;;;3.00;2.00;;;;;12.87;100.00;97852.00;6050620;28;96439;-54
2024/04/03 03:07:42;;;;;;;;;2.50;2.00;;;;;13.00;100.00;97861.50;6051522;28;96310;-56
2024/04/03 03:10:45;;;;;;;;;1.00;1.00;;;;;13.05;100.00;97864.25;6036559;28;96540;-56
2024/04/03 03:13:47;;;;;;;;;2.00;2.00;;;;;13.05;100.00;97849.94;6052481;28;96705;-56
2024/04/03 03:16:49;;;;;;;;;2.00;2.00;;;;;12.98;100.00;97847.44;6035863;28;98515;-56
2024/04/03 03:19:51;;;;;;;;;3.00;2.00;;;;;13.03;100.00;97855.59;6040689;28;98306;-56
2024/04/03 03:22:52;;;;;;;;;2.00;2.00;;;;;13.12;100.00;97854.06;6080571;28;96414;-59
2024/04/03 03:25:56;;;;;;;;;1.25;1.00;;;;;13.22;100.00;97845.97;6083165;28;96377;-59
2024/04/03 03:28:57;;;;;;;;;1.00;1.00;;;;;13.14;100.00;97854.63;6083347;28;96314;-59
2024/04/03 03:31:59;;;;;;;;;2.00;1.00;;;;;13.10;100.00;97858.06;7225145;22;98597;-58
2024/04/03 03:35:01;;;;;;;;;2.00;2.00;;;;;12.75;100.00;97804.59;6191909;23;97147;-58
2024/04/03 03:41:48;;;;;;;;;3.00;2.00;;;;;13.18;100.00;97860.31;6171134;23;97993;-58
2024/04/03 03:44:51;;;;;;;;;2.00;2.00;;;;;13.23;100.00;97846.81;6250700;23;98106;-58
2024/04/03 03:47:52;;;;;;;;;2.00;2.00;;;;;13.27;100.00;97858.72;6170620;23;97989;-58
2024/04/03 03:54:28;;;;;;;;;2.00;1.00;;;;;13.31;100.00;97844.41;6095268;23;97185;-58
2024/04/03 03:57:32;;;;;;;;;1.00;1.00;;;;;13.35;100.00;97853.59;6085350;28;98429;-58
2024/04/03 04:00:36;;;;;;;;;2.00;2.00;;;;;13.36;100.00;97851.72;6068934;28;99801;-58
2024/04/03 04:03:48;;;;;;;;;2.00;2.00;;;;;13.42;100.00;97848.78;6139978;22;96880;31
2024/04/03 04:06:50;;;;;;;;;1.00;1.00;;;;;13.42;100.00;97848.78;6093629;23;97857;-58
2024/04/03 04:10:13;;;;;;;;;2.00;2.00;;;;;13.30;100.00;97834.63;6271207;22;98520;31
2024/04/03 04:13:17;;;;;;;;;1.00;1.00;;;;;13.45;100.00;97853.66;6022307;28;96730;-58
2024/04/03 04:16:19;;;;;;;;;2.00;1.00;;;;;13.45;100.00;97853.66;6306058;23;98457;-58
2024/04/03 04:19:21;;;;;;;;;2.00;2.00;;;;;13.12;100.00;97812.66;6438850;23;99562;-58
2024/04/03 04:22:26;;;;;;;;;1.00;1.00;;;;;13.24;100.00;97834.91;6168228;22;96973;31
2024/04/03 04:25:29;;;;;;;;;1.50;1.50;;;;;13.35;100.00;97850.09;6401143;22;97595;-57
2024/04/03 04:28:32;;;;;;;;;2.00;2.00;;;;;13.38;100.00;97846.88;5997862;28;99367;-58
2024/04/03 04:31:34;;;;;;;;;1.00;1.00;;;;;13.20;100.00;97850.84;6138049;23;96757;-58
2024/04/03 04:34:40;;;;;;;;;2.00;2.00;;;;;13.36;100.00;97855.25;6065986;28;99146;-57
2024/04/03 04:37:41;;;;;;;;;5.00;4.00;;;;;13.48;100.00;97865.03;6085480;28;96951;-56
2024/04/03 04:40:53;;;;;;;;;2.00;2.00;;;;;13.51;100.00;97861.78;6071262;28;96326;-56
2024/04/03 04:43:56;;;;;;;;;2.00;2.00;;;;;13.50;100.00;97869.09;6061667;28;96668;-57
2024/04/03 04:46:58;;;;;;;;;1.25;1.25;;;;;13.55;100.00;97849.34;6078130;28;96672;-58
2024/04/03 04:50:00;;;;;;;;;3.00;3.00;;;;;13.63;100.00;97865.91;6049816;28;98944;-56
2024/04/03 04:53:03;;;;;;;;;1.00;1.00;;;;;13.52;100.00;97855.31;6075622;28;96798;-56
2024/04/03 04:56:05;;;;;;;;;3.00;2.00;;;;;13.53;100.00;97862.34;6099422;28;96341;-57
2024/04/03 04:59:09;;;;;;;;;2.00;2.00;;;;;13.58;100.00;97860.47;6095656;28;96789;-55
2024/04/03 05:02:12;;;;;;;;;2.00;2.00;;;;;13.57;100.00;97861.56;6094831;28;96307;-55
2024/04/03 05:05:13;;;;;;;;;2.00;2.00;;;;;13.70;100.00;97857.53;6083536;28;96947;-55
2024/04/03 05:08:18;;;;;;;;;4.00;3.00;;;;;13.64;100.00;97867.53;6105336;28;96258;-55
2024/04/03 05:11:19;;;;;;;;;2.25;2.25;;;;;13.69;100.00;97872.97;6076357;28;98174;-55
2024/04/03 05:14:23;;;;;;;;;1.00;1.00;;;;;13.59;100.00;97866.69;6108957;28;96356;-55
2024/04/03 05:17:24;;;;;;;;;2.00;2.00;;;;;13.78;100.00;97873.28;6099502;28;96918;-55
2024/04/03 05:20:26;;;;;;;;;3.00;2.00;;;;;13.89;100.00;97877.63;6094646;28;96327;-54
2024/04/03 05:23:29;;;;;;;;;3.00;3.00;;;;;13.83;100.00;97881.38;6081147;28;96989;-56
2024/04/03 05:26:30;;;;;;;;;2.00;2.00;;;;;13.96;100.00;97880.09;6090682;28;96701;-56
2024/04/03 05:29:34;;;;;;;;;2.00;2.00;;;;;14.02;100.00;97877.13;6081707;28;96350;-56
2024/04/03 05:32:35;;;;;;;;;3.00;2.40;;;;;14.00;100.00;97879.28;6114540;28;96269;-57
2024/04/03 05:35:37;;;;;;;;;3.00;2.00;;;;;13.89;100.00;97881.16;6099833;28;96820;-56
2024/04/03 05:38:39;;;;;;;;;2.00;2.00;;;;;13.99;100.00;97882.25;6115659;28;96317;-56
2024/04/03 05:41:41;;;;;;;;;3.00;2.00;;;;;14.11;100.00;97893.66;6102062;28;96439;-56
2024/04/03 05:44:44;;;;;;;;;3.80;3.00;;;;;14.16;100.00;97886.38;6243007;23;98169;-58
2024/04/03 05:47:46;;;;;;;;;2.00;2.00;;;;;14.17;100.00;97893.38;6342260;22;98239;-58
2024/04/03 05:50:48;;;;;;;;;2.00;2.00;;;;;14.04;100.00;97876.84;6162013;23;97468;-58
2024/04/03 05:53:50;;;;;;;;;2.00;2.00;;;;;14.31;100.00;97894.50;6090166;28;96409;-58
2024/04/03 05:56:52;;;;;;;;;3.00;3.00;;;;;14.32;100.00;97898.81;6089207;28;96786;-58
2024/04/03 05:59:55;;;;;;;;;2.00;2.00;;;;;14.28;100.00;97905.06;6090059;28;96303;-58
2024/04/03 06:02:57;;;;;;;;;2.00;2.00;;;;;14.42;100.00;97905.38;6105822;28;96362;-58
2024/04/03 06:05:59;;;;;;;;;3.00;3.00;;;;;14.42;100.00;97878.25;6186434;23;97603;-58
2024/04/03 06:09:04;;;;;;;;;1.00;1.00;;;;;14.46;100.00;97880.19;6123582;28;98642;-58
2024/04/03 06:12:06;;;;;;;;;2.00;2.00;;;;;14.45;100.00;97886.69;6102543;28;96884;-58
2024/04/03 06:15:09;;;;;;;;;4.00;2.75;;;;;14.61;100.00;97887.50;6129666;28;96375;-58
2024/04/03 06:18:12;;;;;;;;;3.00;2.00;;;;;14.41;100.00;97892.91;6113673;28;96761;-58
2024/04/03 06:21:13;;;;;;;;;1.40;1.40;;;;;14.32;100.00;97893.41;6173771;23;97737;-58
2024/04/03 06:24:16;;;;;;;;;3.60;3.00;;;;;14.55;100.00;97907.56;6228055;22;98465;-59
2024/04/03 06:27:18;;;;;;;;;3.00;2.40;;;;;14.43;100.00;97915.16;6093164;28;98960;-59
2024/04/03 06:30:21;;;;;;;;;4.00;3.80;;;;;14.57;100.00;97908.91;6093615;28;96300;-59
2024/04/03 06:33:22;;;;;;;;;3.00;2.00;;;;;14.56;100.00;97896.44;6494644;23;98940;-58
2024/04/03 06:36:25;;;;;;;;;2.00;2.00;;;;;14.45;100.00;97899.44;6101772;28;96796;-58
2024/04/03 06:39:26;;;;;;;;;2.00;1.00;;;;;14.60;100.00;97904.84;6101716;28;96318;-58
2024/04/03 06:42:28;;;;;;;;;4.00;3.00;;;;;14.65;100.00;97907.56;6113808;23;98586;-58
2024/04/03 06:45:31;;;;;;;;;2.00;2.00;;;;;14.63;100.00;97910.53;6077170;28;99087;-58
2024/04/03 06:48:34;;;;;;;;;1.40;1.40;;;;;14.63;100.00;97913.25;6109173;28;96386;-58
2024/04/03 06:51:35;;;;;;;;;3.00;3.00;;;;;14.73;100.00;97910.53;6266397;23;99000;-58
2024/04/03 06:54:37;;;;;;;;;2.40;2.40;;;;;14.61;100.00;97901.06;6107522;28;98582;-58
2024/04/03 06:57:38;;;;;;;;;2.00;2.00;;;;;14.77;100.00;97910.81;6393103;22;98814;-58
2024/04/03 07:00:42;;;;;;;;;2.20;2.20;;;;;14.94;100.00;97908.63;6093310;28;96286;-58
2024/04/03 07:03:43;;;;;;;;;2.75;2.50;;;;;14.87;100.00;97918.94;6447181;23;98526;-58
2024/04/03 07:06:46;;;;;;;;;2.80;2.00;;;;;15.21;100.00;97919.16;6095943;28;96270;-58
2024/04/03 07:09:47;;;;;;;;;2.00;2.00;;;;;15.37;100.00;97909.91;6079333;28;98796;-58
2024/04/03 07:12:49;;;;;;;;;2.75;2.00;;;;;15.55;100.00;97931.06;6075764;28;96833;-58
2024/04/03 07:15:52;;;;;;;;;1.80;1.80;;;;;15.92;100.00;97935.28;6108644;28;96253;-58
2024/04/03 07:18:55;;;;;;;;;2.50;2.00;;;;;16.34;100.00;97927.41;6092516;28;98482;-59
2024/04/03 07:21:56;;;;;;;;;3.00;2.00;;;;;16.68;100.00;97926.66;6092860;28;96322;-58
2024/04/03 07:25:04;;;;;;;;;1.00;1.00;;;;;17.25;100.00;97931.31;6076674;28;97129;-59
2024/04/03 07:28:10;;;;;;;;;2.00;1.00;;;;;17.50;100.00;97922.84;6108376;28;96299;-59
2024/04/03 07:31:14;;;;;;;;;2.60;2.00;;;;;17.97;100.00;97932.16;6092424;28;96591;-59
2024/04/03 07:34:15;;;;;;;;;2.00;2.00;;;;;18.27;100.00;97914.56;6075561;28;98571;-58
2024/04/03 07:37:17;;;;;;;;;1.00;1.00;;;;;19.14;100.00;97917.56;6107530;28;96684;-59
2024/04/03 07:40:18;;;;;;;;;2.00;2.00;;;;;19.99;100.00;97933.44;6090458;28;96704;-59
2024/04/03 07:43:20;;;;;;;;;2.40;2.00;;;;;20.32;99.65;97907.56;6107323;28;96359;-59
2024/04/03 07:46:23;;;;;;;;;2.00;2.00;;;;;20.90;91.66;97923.97;6090998;28;98375;-59
2024/04/03 07:49:27;;;;;;;;;2.00;2.00;;;;;21.98;88.99;97915.31;6106299;28;96356;-59
2024/04/03 07:52:28;;;;;;;;;2.00;2.00;;;;;22.71;79.45;97908.16;6106633;28;96214;-59
2024/04/03 07:55:30;;;;;;;;;1.60;1.00;;;;;23.62;76.18;97910.53;6071849;28;96704;-59
2024/04/03 07:58:32;;;;;;;;;1.00;1.00;;;;;24.28;71.11;97886.91;6106640;28;96396;-59
2024/04/03 08:01:35;;;;;;;;;1.00;1.00;;;;;24.94;65.23;97923.66;6089954;28;96307;-59
2024/04/03 08:04:37;;;;;;;;;2.00;1.00;;;;;25.92;62.72;97913.63;6097740;28;96341;-56
2024/04/03 08:07:40;;;;;;;;;2.00;1.00;;;;;26.79;57.20;97924.19;6079403;28;100443;-56
2024/04/03 08:10:42;;;;;;;;;2.00;1.00;;;;;27.56;57.73;97934.72;6078695;28;98492;-56
2024/04/03 08:13:43;;;;;;;;;2.00;1.50;;;;;27.26;54.52;97918.84;6074103;28;96332;-56
2024/04/03 08:16:47;;;;;;;;;2.00;2.00;;;;;27.63;50.52;97939.63;6046598;28;96305;-55
2024/04/03 08:19:50;;;;;;;;;1.40;1.00;;;;;25.92;54.48;97927.44;6032589;28;96671;-56
2024/04/03 08:22:52;;;;;;;;;1.00;1.00;;;;;24.26;59.68;97935.19;6034272;28;99328;-56
2024/04/03 08:25:54;;;;;;;;;2.00;2.00;;;;;24.33;61.50;97930.78;6019714;28;97030;-56
2024/04/03 08:28:57;;;;;;;;;1.40;1.00;;;;;25.99;58.11;97938.72;6048906;28;96283;-56
2024/04/03 08:31:59;;;;;;;;;1.00;1.00;;;;;26.57;51.43;97929.13;6047022;28;96288;-56
2024/04/03 08:35:03;;;;;;;;;0.20;0.20;;;;;25.95;52.68;97935.03;6047273;28;96363;-56
2024/04/03 08:38:05;;;;;;;;;2.40;1.00;;;;;25.85;54.23;97924.47;6031861;28;96284;-57
2024/04/03 08:41:07;;;;;;;;;2.00;2.00;;;;;27.52;50.68;97924.72;6031088;28;96358;-57
2024/04/03 08:44:10;;;;;;;;;1.00;1.00;;;;;26.33;50.82;97945.75;6046973;28;96360;-57
2024/04/03 08:47:13;;;;;;;;;1.00;1.00;;;;;26.40;53.87;97923.03;6048869;28;96855;-57
2024/04/03 08:50:16;;;;;;;;;2.00;2.00;;;;;26.53;52.03;97933.75;6068800;28;96320;-56
2024/04/03 08:53:18;;;;;;;;;0.00;0.00;;;;;27.01;48.78;97927.28;6067381;28;97029;-56
2024/04/03 08:56:21;;;;;;;;;1.00;1.00;;;;;27.49;49.69;97923.47;6069971;28;96830;-56
2024/04/03 08:59:22;;;;;;;;;2.40;1.00;;;;;27.39;47.89;97932.25;6038139;28;96680;-56
2024/04/03 09:02:26;;;;;;;;;1.00;1.00;;;;;28.60;45.42;97924.16;6061910;28;96349;-57
2024/04/03 09:05:27;;;;;;;;;1.00;1.00;;;;;30.92;41.25;97931.44;6068468;28;96583;-57
2024/04/03 09:08:41;;;;;;;;;1.00;1.00;;;;;33.22;37.48;97919.44;6051845;28;96569;-56
2024/04/03 09:11:44;;;;;;;;;1.00;1.00;;;;;34.80;33.83;97914.28;6034777;28;96752;-57
2024/04/03 09:14:46;;;;;;;;;4.00;3.00;;;;;35.05;32.36;97920.56;6027876;28;96378;-61
2024/04/03 09:18:00;;;;;;;;;1.00;1.00;;;;;35.55;30.04;97923.13;6028157;28;97099;-61
2024/04/03 09:21:04;;;;;;;;;1.00;1.00;;;;;36.12;30.92;97914.31;6011955;28;96411;-61
2024/04/03 09:24:06;;;;;;;;;1.00;1.00;;;;;36.80;29.26;97898.44;6027340;28;96358;-61
2024/04/03 09:27:10;;;;;;;;;1.00;1.00;;;;;36.62;29.38;97903.44;6027786;28;96282;-61
2024/04/03 09:30:14;;;;;;;;;1.00;1.00;;;;;36.27;29.21;97898.97;6027364;28;96450;-62
2024/04/03 09:33:17;;;;;;;;;1.80;1.00;;;;;35.26;29.80;97900.09;6027745;28;96805;-61
2024/04/03 09:36:20;;;;;;;;;2.00;1.00;;;;;34.23;31.13;97888.41;6031193;28;99658;-62
2024/04/03 09:39:22;;;;;;;;;1.00;1.00;;;;;34.10;32.01;97890.00;6050859;28;96334;-61
2024/04/03 09:42:26;;;;;;;;;2.00;1.00;;;;;33.96;32.46;97906.81;6050612;28;97588;-61
2024/04/03 09:45:29;;;;;;;;;2.00;1.20;;;;;33.23;32.98;97897.91;6034710;28;96343;-61
2024/04/03 09:48:34;;;;;;;;;1.00;1.00;;;;;32.39;33.53;97913.03;6034281;28;98578;-61
2024/04/03 09:51:36;;;;;;;;;1.00;1.00;;;;;31.26;34.85;97902.44;6057159;28;96280;-61
2024/04/03 09:54:40;;;;;;;;;1.60;1.60;;;;;30.90;38.13;97892.84;6048256;28;97069;-61
2024/04/03 09:57:41;;;;;;;;;1.60;1.60;;;;;30.50;37.10;97893.53;6049718;28;96423;-61
2024/04/03 10:00:52;;;;;;;;;1.00;1.00;;;;;31.63;35.22;97908.00;6018753;28;98562;-61
2024/04/03 10:04:03;;;;;;;;;1.00;0.00;;;;;29.79;38.28;97904.72;6050168;28;97053;-61
2024/04/03 10:07:16;;;;;;;;;1.00;1.00;;;;;29.95;38.24;97900.66;6050209;28;96914;-61
2024/04/03 10:10:18;;;;;;;;;3.00;1.60;;;;;31.35;36.06;97893.78;6050540;28;96463;-61
2024/04/03 10:13:24;;;;;;;;;1.00;1.00;;;;;31.04;35.28;97900.59;6049821;28;97475;-61
2024/04/03 10:16:32;;;;;;;;;1.00;1.00;;;;;33.20;34.20;97895.88;6018486;28;96701;-61
2024/04/03 10:19:36;;;;;;;;;2.00;2.00;;;;;35.08;31.02;97902.97;6018491;28;96664;-61
2024/04/03 10:22:41;;;;;;;;;1.00;1.00;;;;;36.26;28.86;97923.44;6034116;28;96487;-61
2024/04/03 10:25:43;;;;;;;;;1.00;1.00;;;;;35.94;29.10;97918.06;6075958;28;96656;-60
2024/04/03 10:28:45;;;;;;;;;1.00;1.00;;;;;36.28;28.31;97909.78;6065671;28;96757;-60
2024/04/03 10:31:47;;;;;;;;;1.00;0.80;;;;;36.19;27.35;97920.69;6065152;28;96771;-60
2024/04/03 10:34:50;;;;;;;;;1.00;0.00;;;;;37.05;27.53;97929.81;6063680;28;99216;-60
2024/04/03 10:37:52;;;;;;;;;1.00;0.00;;;;;37.44;27.19;97929.31;6054486;28;96789;-60
2024/04/03 10:40:57;;;;;;;;;1.00;1.00;;;;;37.93;27.37;97916.53;6070392;28;96292;-60
2024/04/03 10:43:58;;;;;;;;;0.00;0.00;;;;;38.47;25.99;97930.53;6070789;28;96298;-60
2024/04/03 10:47:04;;;;;;;;;1.75;1.00;;;;;39.53;26.23;97911.47;6039663;28;96788;-61
2024/04/03 10:50:08;;;;;;;;;1.00;1.00;;;;;39.76;26.18;97916.19;6038746;28;99009;-61
2024/04/03 10:53:10;;;;;;;;;1.00;1.00;;;;;39.95;25.24;97929.44;6064136;28;96370;-60
2024/04/03 10:56:12;;;;;;;;;2.00;1.00;;;;;39.26;24.94;97920.09;6050619;28;96374;-60
2024/04/03 10:59:14;;;;;;;;;1.00;1.00;;;;;37.99;25.90;97928.13;6049490;28;97055;-60
2024/04/03 11:02:16;;;;;;;;;1.00;0.00;;;;;37.10;26.41;97917.31;6063279;28;96934;-61
2024/04/03 11:05:20;;;;;;;;;2.20;1.00;;;;;37.64;26.26;97932.25;6052061;28;98442;-61
2024/04/03 11:08:21;;;;;;;;;0.50;0.50;;;;;36.86;26.64;97922.81;6079254;28;96277;-61
2024/04/03 11:11:23;;;;;;;;;1.00;1.00;;;;;35.84;28.57;97923.75;6080966;28;96327;-61
2024/04/03 11:14:25;;;;;;;;;0.60;0.60;;;;;34.62;29.02;97900.31;6080953;28;96371;-61
2024/04/03 11:17:27;;;;;;;;;1.00;0.00;;;;;33.93;30.18;97911.19;6078041;28;96287;-60
2024/04/03 11:20:32;;;;;;;;;1.00;1.00;;;;;35.22;29.49;97918.94;6063882;28;96346;-60
2024/04/03 11:23:34;;;;;;;;;1.25;1.00;;;;;35.55;27.28;97945.56;6064278;28;96516;-61
2024/04/03 11:26:35;;;;;;;;;1.00;1.00;;;;;35.56;28.57;97913.53;6063112;28;96578;-61
2024/04/03 11:29:40;;;;;;;;;1.00;0.40;;;;;33.70;30.42;97917.16;6044570;28;98527;-60
2024/04/03 11:32:42;;;;;;;;;1.00;1.00;;;;;33.88;30.12;97914.38;6076393;28;96362;-60
2024/04/03 11:35:45;;;;;;;;;2.00;1.00;;;;;35.08;29.92;97916.97;6054249;28;98589;-57
2024/04/03 11:38:47;;;;;;;;;2.00;1.60;;;;;35.55;28.44;97918.34;6059877;28;96542;-57
2024/04/03 11:41:49;;;;;;;;;1.00;1.00;;;;;35.89;28.64;97926.94;6053745;28;97190;-58
2024/04/03 11:44:51;;;;;;;;;0.50;0.50;;;;;35.23;29.44;97916.94;6059196;28;96702;-58
2024/04/03 11:47:52;;;;;;;;;0.60;0.60;;;;;35.44;29.36;97930.81;6062439;28;96933;-57
2024/04/03 11:50:56;;;;;;;;;1.00;1.00;;;;;35.04;29.63;97915.41;6043911;28;98997;-57
2024/04/03 11:53:58;;;;;;;;;1.00;1.00;;;;;33.44;30.60;97929.47;6085190;28;96297;-57
2024/04/03 11:57:00;;;;;;;;;0.80;0.80;;;;;32.71;32.04;97925.19;6070011;28;98514;-58
2024/04/03 12:00:02;;;;;;;;;0.00;0.00;;;;;32.57;32.85;97925.88;6062121;28;96453;-57
2024/04/03 12:03:13;;;;;;;;;2.20;1.40;;;;;32.52;33.61;97923.47;6069502;28;96336;-57
2024/04/03 12:06:16;;;;;;;;;2.00;2.00;;;;;31.59;34.05;97926.69;6060395;28;98069;-56
2024/04/03 12:09:18;;;;;;;;;1.25;1.25;;;;;30.26;36.05;97935.66;6053175;28;96537;-57
2024/04/03 12:12:19;;;;;;;;;1.00;1.00;;;;;29.15;38.94;97934.06;6048464;28;96481;-57
2024/04/03 12:15:22;;;;;;;;;1.00;1.00;;;;;28.57;40.56;97933.22;6033674;28;98537;-56
2024/04/03 12:18:25;;;;;;;;;0.00;0.00;;;;;28.10;40.60;97939.63;6050407;28;96856;-59
2024/04/03 12:21:29;;;;;;;;;1.00;1.00;;;;;27.44;43.07;97945.84;6049581;28;96451;-57
2024/04/03 12:24:30;;;;;;;;;1.00;1.00;;;;;26.54;41.57;97953.88;6072902;28;96388;-58
2024/04/03 12:27:32;;;;;;;;;0.00;0.00;;;;;25.99;44.35;97944.25;6062070;28;96484;-57
2024/04/03 12:30:34;;;;;;;;;1.00;1.00;;;;;25.56;44.46;97941.22;6080326;28;96863;-57
2024/04/03 12:33:36;;;;;;;;;1.50;1.50;;;;;25.22;44.96;97939.59;6075210;28;96864;-58
2024/04/03 12:36:40;;;;;;;;;1.00;1.00;;;;;24.77;47.48;97948.59;6077394;28;96383;-57
2024/04/03 12:39:41;;;;;;;;;1.00;1.00;;;;;24.13;49.58;97937.03;6084070;28;96275;-57
2024/04/03 12:42:43;;;;;;;;;1.00;1.00;;;;;24.00;50.90;97952.63;6071583;28;97218;-57
2024/04/03 12:45:49;;;;;;;;;1.00;1.00;;;;;23.68;52.55;97939.50;6056078;28;97117;-56
2024/04/03 12:48:51;;;;;;;;;2.00;1.00;;;;;23.51;54.15;97962.38;6054754;28;96878;-55
2024/04/03 12:51:54;;;;;;;;;1.00;1.00;;;;;22.97;57.71;97933.66;6054114;28;96784;-57
2024/04/03 12:54:56;;;;;;;;;1.00;1.00;;;;;23.11;57.39;97944.50;6027559;28;98964;-60
2024/04/03 12:57:58;;;;;;;;;2.00;1.00;;;;;22.84;61.41;97943.69;6036233;28;96580;-60
2024/04/03 13:01:02;;;;;;;;;1.00;1.00;;;;;22.58;63.75;97953.06;6033637;28;96640;-60
2024/04/03 13:04:06;;;;;;;;;1.60;1.60;;;;;22.39;64.23;97958.84;6051283;28;96373;-60
2024/04/03 13:07:10;;;;;;;;;2.00;2.00;;;;;22.28;65.69;97947.38;6019572;28;97550;-60
2024/04/03 13:10:11;;;;;;;;;1.00;0.00;;;;;22.31;66.19;97959.63;6035626;28;96130;-60
2024/04/03 13:13:13;;;;;;;;;1.20;1.00;;;;;22.16;67.63;97960.91;6026158;28;98567;-60
2024/04/03 13:16:15;;;;;;;;;1.00;1.00;;;;;22.49;65.42;97972.25;6043461;28;96384;-60
2024/04/03 13:19:17;;;;;;;;;8.50;6.50;;;;;22.47;66.43;97963.56;6054363;28;96351;-60
2024/04/03 13:22:21;;;;;;;;;2.00;1.60;;;;;22.60;66.62;97962.59;6041154;28;97418;-60
2024/04/03 13:25:23;;;;;;;;;2.00;1.00;;;;;22.82;65.82;97976.19;6046040;28;96496;-60
2024/04/03 13:28:25;;;;;;;;;1.00;1.00;;;;;22.95;65.81;97979.09;6040825;28;98211;-60
2024/04/03 13:31:28;;;;;;;;;2.00;2.00;;;;;22.74;63.08;97968.75;6037645;28;96383;-60
2024/04/03 13:34:29;;;;;;;;;2.00;0.00;;;;;22.64;63.38;97980.03;6038208;28;96311;-60
2024/04/03 13:37:32;;;;;;;;;2.00;1.00;;;;;22.63;61.28;97983.09;6021200;28;96846;-60
2024/04/03 13:40:36;;;;;;;;;1.00;1.00;;;;;22.76;63.22;97983.00;6045070;28;96835;-60
2024/04/03 13:43:38;;;;;;;;;3.00;3.00;;;;;22.76;62.62;97972.00;6050387;28;97158;-60
2024/04/03 13:46:40;;;;;;;;;1.00;1.00;;;;;22.68;62.08;97969.19;6039882;28;96884;-61
2024/04/03 13:49:42;;;;;;;;;2.00;1.60;;;;;22.68;62.63;97970.00;6050851;28;96456;-60
2024/04/03 13:52:44;;;;;;;;;1.00;1.00;;;;;22.44;61.30;97975.97;6039500;28;97551;-60
2024/04/03 13:55:57;;;;;;;;;2.00;2.00;;;;;22.60;62.97;97979.06;6064473;28;96495;-60
2024/04/03 13:58:59;;;;;;;;;2.40;2.00;;;;;22.73;63.17;97988.31;6046014;28;97117;-61
2024/04/03 14:02:00;;;;;;;;;1.00;1.00;;;;;22.69;62.45;97976.31;6020980;28;96570;-61
2024/04/03 14:05:02;;;;;;;;;2.00;1.00;;;;;22.60;64.65;97989.25;6037973;28;96458;-61
2024/04/03 14:08:06;;;;;;;;;1.00;1.00;;;;;22.77;65.64;97989.31;6016793;28;98553;-60
2024/04/03 14:11:08;;;;;;;;;3.00;1.00;;;;;22.85;65.29;97992.03;6020507;28;96413;-60
2024/04/03 14:14:09;;;;;;;;;1.00;1.00;;;;;22.94;64.90;97981.03;6043037;28;96386;-60
2024/04/03 14:17:12;;;;;;;;;1.00;1.00;;;;;22.85;65.32;97983.81;6022917;28;97022;-59
2024/04/03 14:20:13;;;;;;;;;1.00;1.00;;;;;22.84;66.00;97990.44;6045756;28;96871;-60
2024/04/03 14:23:17;;;;;;;;;2.40;2.40;;;;;22.67;66.16;97990.41;6020258;28;97132;-60